Terminal Aerodrome Forecast
Issued by NWS

Home | Current Version | Previous Version | Text Only | Print | Product List | Glossary On
Versions: 1 2 3 4 5 6 7 8 9 10 11 12 13 14 15 16 17 18 19 20 21
000
FTUS43 KGLD 231120
TAFMCK
TAF
KMCK 231120Z 2312/2412 VRB04KT 1/4SM FG VV002
      TEMPO 2312/2314 3SM BR SCT004
     FM231400 VRB04KT P6SM SKC
     FM231900 19008KT P6SM FEW070
     FM240800 24007KT P6SM FEW150=

USA.gov is the U.S. government's official web portal to all federal, state and local government web resources and services.